Time,TemperatureF,DewpointF,PressureIn,WindDirection,WindDirectionDegrees,WindSpeedMPH,WindSpeedGustMPH,Humidity,HourlyPrecipIn,Conditions,Clouds,dailyrainin,SolarRadiationWatts/m^2,SoftwareType,DateUTC
2013-08-21 00:44:00,76.0,74.0,-100.00,NW,322,0.0,0.0,93,0.00,,,0.01,0.000000,,2013-08-21 04:44:00,
2013-08-21 00:54:00,76.0,74.0,-100.00,NW,322,0.0,0.0,93,0.00,,,0.01,0.000000,,2013-08-21 04:54:00,
2013-08-21 01:02:00,76.0,74.0,-100.00,NW,322,0.0,0.0,93,0.00,,,0.01,0.000000,,2013-08-21 05:02:00,
2013-08-21 01:23:00,75.0,73.0,-100.00,SW,231,0.0,0.0,94,0.00,,,0.00,0.000000,,2013-08-21 05:23:00,
2013-08-21 01:34:00,75.0,73.0,-100.00,SW,231,0.0,0.0,94,0.00,,,0.00,0.000000,,2013-08-21 05:34:00,
2013-08-21 01:43:00,75.0,73.0,-100.00,SW,231,0.0,0.0,94,0.00,,,0.00,0.000000,,2013-08-21 05:43:00,
2013-08-21 01:52:00,75.0,73.0,-100.00,SW,231,0.0,0.0,94,0.00,,,0.00,0.000000,,2013-08-21 05:52:00,
2013-08-21 02:02:00,75.0,73.0,-100.00,SW,231,0.0,0.0,94,0.00,,,0.00,0.000000,,2013-08-21 06:02:00,
2013-08-21 02:42:00,74.0,72.0,-100.00,East,83,0.0,0.0,94,0.00,,,0.00,0.000000,,2013-08-21 06:42:00,
2013-08-21 02:52:00,74.0,72.0,-100.00,East,83,0.0,0.0,94,0.00,,,0.00,0.000000,,2013-08-21 06:52:00,
2013-08-21 03:02:00,74.0,72.0,-100.00,East,83,0.0,0.0,94,0.00,,,0.00,0.000000,,2013-08-21 07:02:00,
2013-08-21 03:42:00,74.0,72.0,-100.00,ESE,103,0.0,0.0,94,0.00,,,0.00,0.000000,,2013-08-21 07:42:00,
2013-08-21 03:53:00,74.0,72.0,-100.00,ESE,103,0.0,0.0,94,0.00,,,0.00,0.000000,,2013-08-21 07:53:00,
2013-08-21 04:03:00,74.0,72.0,-100.00,ESE,103,0.0,0.0,94,0.00,,,0.00,0.000000,,2013-08-21 08:03:00,
2013-08-21 04:22:00,73.0,71.0,-100.00,North,4,0.0,0.0,95,0.00,,,0.00,0.000000,,2013-08-21 08:22:00,
2013-08-21 04:32:00,73.0,71.0,-100.00,North,4,0.0,0.0,95,0.00,,,0.00,0.000000,,2013-08-21 08:32:00,
2013-08-21 04:43:00,73.0,71.0,-100.00,North,4,0.0,0.0,95,0.00,,,0.00,0.000000,,2013-08-21 08:43:00,
2013-08-21 04:53:00,73.0,71.0,-100.00,North,4,0.0,0.0,95,0.00,,,0.00,0.000000,,2013-08-21 08:53:00,
2013-08-21 05:01:00,73.0,71.0,-100.00,North,4,0.0,0.0,95,0.00,,,0.00,0.000000,,2013-08-21 09:01:00,
2013-08-21 05:43:00,72.0,70.0,-100.00,SW,222,0.0,0.0,95,0.00,,,0.00,0.000000,,2013-08-21 09:43:00,
2013-08-21 05:54:00,72.0,70.0,-100.00,SW,222,0.0,0.0,95,0.00,,,0.00,0.000000,,2013-08-21 09:54:00,
2013-08-21 06:03:00,72.0,70.0,-100.00,SW,222,0.0,0.0,95,0.00,,,0.00,0.000000,,2013-08-21 10:03:00,
2013-08-21 06:43:00,72.0,70.0,-100.00,ENE,59,0.0,0.0,95,0.00,,,0.00,0.000000,,2013-08-21 10:43:00,
2013-08-21 06:53:00,72.0,70.0,-100.00,ENE,59,0.0,0.0,95,0.00,,,0.00,0.000000,,2013-08-21 10:53:00,
2013-08-21 07:03:00,72.0,70.0,-100.00,ENE,59,0.0,0.0,95,0.00,,,0.00,0.000000,,2013-08-21 11:03:00,
2013-08-21 07:42:00,72.0,70.0,-100.00,ENE,65,0.0,0.0,95,0.00,,,0.00,1.000000,,2013-08-21 11:42:00,
2013-08-21 07:53:00,72.0,70.0,-100.00,ENE,65,0.0,0.0,95,0.00,,,0.00,1.000000,,2013-08-21 11:53:00,
2013-08-21 08:01:00,72.0,70.0,-100.00,ENE,65,0.0,0.0,95,0.00,,,0.00,1.000000,,2013-08-21 12:01:00,
2013-08-21 08:42:00,75.0,73.0,-100.00,North,11,0.0,0.0,95,0.00,,,0.00,55.000000,,2013-08-21 12:42:00,
2013-08-21 08:52:00,75.0,73.0,-100.00,North,11,0.0,0.0,95,0.00,,,0.00,55.000000,,2013-08-21 12:52:00,
2013-08-21 09:02:00,75.0,73.0,-100.00,North,11,0.0,0.0,95,0.00,,,0.00,55.000000,,2013-08-21 13:02:00,
2013-08-21 09:42:00,83.0,80.0,-100.00,NE,52,2.0,4.0,90,0.00,,,0.00,248.000000,,2013-08-21 13:42:00,
2013-08-21 09:52:00,83.0,80.0,-100.00,NE,52,2.0,4.0,90,0.00,,,0.00,248.000000,,2013-08-21 13:52:00,
2013-08-21 10:02:00,83.0,80.0,-100.00,NE,52,2.0,4.0,90,0.00,,,0.00,248.000000,,2013-08-21 14:02:00,
2013-08-21 10:22:00,85.0,75.0,-100.00,NE,48,3.0,7.0,72,0.00,,,0.00,415.000000,,2013-08-21 14:22:00,
2013-08-21 10:32:00,85.0,75.0,-100.00,NE,48,3.0,7.0,72,0.00,,,0.00,415.000000,,2013-08-21 14:32:00,
2013-08-21 10:42:00,85.0,75.0,-100.00,NE,48,3.0,7.0,72,0.00,,,0.00,415.000000,,2013-08-21 14:42:00,
2013-08-21 10:52:00,85.0,75.0,-100.00,NE,48,3.0,7.0,72,0.00,,,0.00,415.000000,,2013-08-21 14:52:00,
2013-08-21 11:01:00,85.0,75.0,-100.00,NE,48,3.0,7.0,72,0.00,,,0.00,415.000000,,2013-08-21 15:01:00,
2013-08-21 11:04:00,86.0,73.0,-100.00,East,87,4.0,10.0,66,0.00,,,-99.99,464.000000,,2013-08-21 15:04:00,
2013-08-21 11:43:00,86.0,73.0,-100.00,East,87,4.0,10.0,66,0.00,,,-99.99,464.000000,,2013-08-21 15:43:00,
2013-08-21 11:55:00,86.0,73.0,-100.00,East,87,4.0,10.0,66,0.00,,,-99.99,464.000000,,2013-08-21 15:55:00,
2013-08-21 12:04:00,81.0,72.0,-100.00,WSW,248,3.0,8.0,74,0.00,,,0.00,145.000000,,2013-08-21 16:04:00,
2013-08-21 12:43:00,81.0,72.0,-100.00,WSW,248,3.0,8.0,74,0.00,,,0.00,145.000000,,2013-08-21 16:43:00,
2013-08-21 12:53:00,81.0,72.0,-100.00,WSW,248,3.0,8.0,74,0.00,,,0.00,145.000000,,2013-08-21 16:53:00,
2013-08-21 13:23:00,78.0,74.0,-100.00,WNW,297,2.0,6.0,89,0.00,,,0.00,129.000000,,2013-08-21 17:23:00,
2013-08-21 13:34:00,78.0,74.0,-100.00,WNW,297,2.0,6.0,89,0.00,,,0.00,129.000000,,2013-08-21 17:34:00,
2013-08-21 13:43:00,78.0,74.0,-100.00,WNW,297,2.0,6.0,89,0.00,,,0.00,129.000000,,2013-08-21 17:43:00,
2013-08-21 13:53:00,78.0,74.0,-100.00,WNW,297,2.0,6.0,89,0.00,,,0.00,129.000000,,2013-08-21 17:53:00,
2013-08-21 14:03:00,78.0,74.0,-100.00,WNW,297,2.0,6.0,89,0.00,,,0.00,129.000000,,2013-08-21 18:03:00,
2013-08-21 14:42:00,80.0,76.0,-100.00,ESE,111,2.0,4.0,88,0.00,,,0.00,163.000000,,2013-08-21 18:42:00,
2013-08-21 14:52:00,80.0,76.0,-100.00,ESE,111,2.0,4.0,88,0.00,,,0.00,163.000000,,2013-08-21 18:52:00,
2013-08-21 15:01:00,80.0,76.0,-100.00,ESE,111,2.0,4.0,88,0.00,,,0.00,163.000000,,2013-08-21 19:01:00,
2013-08-21 15:42:00,85.0,77.0,-100.00,ENE,65,5.0,9.0,77,0.00,,,0.00,540.000000,,2013-08-21 19:42:00,
2013-08-21 15:53:00,85.0,77.0,-100.00,ENE,65,5.0,9.0,77,0.00,,,0.00,540.000000,,2013-08-21 19:53:00,
2013-08-21 16:03:00,85.0,77.0,-100.00,ENE,65,5.0,9.0,77,0.00,,,0.00,540.000000,,2013-08-21 20:03:00,
2013-08-21 16:22:00,89.0,77.0,-100.00,ESE,119,5.0,14.0,67,0.00,,,0.00,803.000000,,2013-08-21 20:22:00,
2013-08-21 16:33:00,89.0,77.0,-100.00,ESE,119,5.0,14.0,67,0.00,,,0.00,803.000000,,2013-08-21 20:33:00,
2013-08-21 16:43:00,89.0,77.0,-100.00,ESE,119,5.0,14.0,67,0.00,,,0.00,803.000000,,2013-08-21 20:43:00,
2013-08-21 16:52:00,89.0,77.0,-100.00,ESE,119,5.0,14.0,67,0.00,,,0.00,803.000000,,2013-08-21 20:52:00,
2013-08-21 17:02:00,89.0,77.0,-100.00,ESE,119,5.0,14.0,67,0.00,,,0.00,803.000000,,2013-08-21 21:02:00,
2013-08-21 17:04:00,85.0,73.0,-100.00,NE,36,3.0,10.0,68,0.00,,,0.00,425.000000,,2013-08-21 21:04:00,
2013-08-21 17:45:00,85.0,73.0,-100.00,NE,36,3.0,10.0,68,0.00,,,0.00,425.000000,,2013-08-21 21:45:00,
2013-08-21 17:55:00,85.0,73.0,-100.00,NE,36,3.0,10.0,68,0.00,,,0.00,425.000000,,2013-08-21 21:55:00,
2013-08-21 18:04:00,84.0,74.0,-100.00,East,101,2.0,7.0,71,0.00,,,-99.99,245.000000,,2013-08-21 22:04:00,
2013-08-21 18:24:00,84.0,74.0,-100.00,East,101,2.0,7.0,71,0.00,,,-99.99,245.000000,,2013-08-21 22:24:00,
2013-08-21 18:34:00,84.0,74.0,-100.00,East,101,2.0,7.0,71,0.00,,,-99.99,245.000000,,2013-08-21 22:34:00,
2013-08-21 18:44:00,84.0,74.0,-100.00,East,101,2.0,7.0,71,0.00,,,-99.99,245.000000,,2013-08-21 22:44:00,
2013-08-21 18:53:00,84.0,74.0,-100.00,East,101,2.0,7.0,71,0.00,,,-99.99,245.000000,,2013-08-21 22:53:00,
2013-08-21 19:43:00,81.0,74.0,-100.00,East,88,3.0,5.0,80,0.00,,,0.00,63.000000,,2013-08-21 23:43:00,
2013-08-21 19:53:00,81.0,74.0,-100.00,East,88,3.0,5.0,80,0.00,,,0.00,63.000000,,2013-08-21 23:53:00,
2013-08-21 20:02:00,81.0,74.0,-100.00,East,88,3.0,5.0,80,0.00,,,0.00,63.000000,,2013-08-22 00:02:00,
2013-08-21 20:22:00,80.0,75.0,-100.00,West,266,0.0,4.0,86,0.00,,,0.00,15.000000,,2013-08-22 00:22:00,
2013-08-21 20:32:00,80.0,75.0,-100.00,West,266,0.0,4.0,86,0.00,,,0.00,15.000000,,2013-08-22 00:32:00,
2013-08-21 20:42:00,80.0,75.0,-100.00,West,266,0.0,4.0,86,0.00,,,0.00,15.000000,,2013-08-22 00:42:00,
2013-08-21 20:52:00,80.0,75.0,-100.00,West,266,0.0,4.0,86,0.00,,,0.00,15.000000,,2013-08-22 00:52:00,
2013-08-21 21:02:00,80.0,75.0,-100.00,West,266,0.0,4.0,86,0.00,,,0.00,15.000000,,2013-08-22 01:02:00,
2013-08-21 21:42:00,77.0,74.0,-100.00,East,98,0.0,0.0,91,0.00,,,0.00,0.000000,,2013-08-22 01:42:00,
2013-08-21 21:52:00,77.0,74.0,-100.00,East,98,0.0,0.0,91,0.00,,,0.00,0.000000,,2013-08-22 01:52:00,
2013-08-21 22:03:00,77.0,74.0,-100.00,East,98,0.0,0.0,91,0.00,,,0.00,0.000000,,2013-08-22 02:03:00,
2013-08-21 22:52:00,76.0,74.0,-100.00,WNW,302,1.0,1.0,93,0.00,,,0.00,0.000000,,2013-08-22 02:52:00,
2013-08-21 23:02:00,76.0,74.0,-100.00,WNW,302,1.0,1.0,93,0.00,,,0.00,0.000000,,2013-08-22 03:02:00,
2013-08-21 23:04:00,75.0,73.0,-100.00,NNE,20,0.0,1.0,94,0.00,,,0.00,0.000000,,2013-08-22 03:04:00,
2013-08-21 23:22:00,75.0,73.0,-100.00,NNE,20,0.0,1.0,94,0.00,,,0.00,0.000000,,2013-08-22 03:22:00,
2013-08-21 23:35:00,75.0,73.0,-100.00,NNE,20,0.0,1.0,94,0.00,,,0.00,0.000000,,2013-08-22 03:35:00,
2013-08-21 23:45:00,75.0,73.0,-100.00,NNE,20,0.0,1.0,94,0.00,,,0.00,0.000000,,2013-08-22 03:45:00,
2013-08-21 23:54:00,75.0,73.0,-100.00,NNE,20,0.0,1.0,94,0.00,,,0.00,0.000000,,2013-08-22 03:54:00,